sensor_id;sensor_type;location;lat;lon;timestamp;pressure;altitude;pressure_sealevel;temperature;humidity
58102;BME280;52034;51.926;6.320;2022-11-15T00:00:09;100867.38;;;7.50;86.80
58102;BME280;52034;51.926;6.320;2022-11-15T00:01:28;100874.47;;;7.54;88.21
58102;BME280;52034;51.926;6.320;2022-11-15T00:02:47;100875.22;;;7.51;87.95
58102;BME280;52034;51.926;6.320;2022-11-15T00:04:06;100866.50;;;7.49;87.85
58102;BME280;52034;51.926;6.320;2022-11-15T00:05:25;100868.81;;;7.42;88.16
58102;BME280;52034;51.926;6.320;2022-11-15T00:06:44;100872.47;;;7.47;89.01
58102;BME280;52034;51.926;6.320;2022-11-15T00:08:03;100872.56;;;7.50;88.08
58102;BME280;52034;51.926;6.320;2022-11-15T00:09:22;100873.47;;;7.50;88.61
58102;BME280;52034;51.926;6.320;2022-11-15T00:10:41;100878.59;;;7.49;89.51
58102;BME280;52034;51.926;6.320;2022-11-15T00:12:00;100871.50;;;7.45;89.57
58102;BME280;52034;51.926;6.320;2022-11-15T00:13:19;100869.59;;;7.39;89.77
58102;BME280;52034;51.926;6.320;2022-11-15T00:14:38;100872.19;;;7.39;89.95
58102;BME280;52034;51.926;6.320;2022-11-15T00:15:58;100864.38;;;7.39;90.66
58102;BME280;52034;51.926;6.320;2022-11-15T00:17:17;100860.97;;;7.40;89.19
58102;BME280;52034;51.926;6.320;2022-11-15T00:18:38;100865.34;;;7.41;90.71
58102;BME280;52034;51.926;6.320;2022-11-15T00:19:57;100858.25;;;7.37;89.58
58102;BME280;52034;51.926;6.320;2022-11-15T00:21:17;100855.66;;;7.37;90.47
58102;BME280;52034;51.926;6.320;2022-11-15T00:22:35;100860.06;;;7.40;90.77
58102;BME280;52034;51.926;6.320;2022-11-15T00:23:54;100859.19;;;7.39;90.61
58102;BME280;52034;51.926;6.320;2022-11-15T00:25:13;100855.66;;;7.37;90.10
58102;BME280;52034;51.926;6.320;2022-11-15T00:26:32;100853.75;;;7.33;91.40
58102;BME280;52034;51.926;6.320;2022-11-15T00:27:55;100844.31;;;7.35;89.68
58102;BME280;52034;51.926;6.320;2022-11-15T00:29:14;100852.34;;;7.41;89.58
58102;BME280;52034;51.926;6.320;2022-11-15T00:30:33;100844.38;;;7.36;90.56
58102;BME280;52034;51.926;6.320;2022-11-15T00:31:52;100845.31;;;7.39;90.99
58102;BME280;52034;51.926;6.320;2022-11-15T00:33:11;100839.22;;;7.38;90.68
58102;BME280;52034;51.926;6.320;2022-11-15T00:34:30;100839.28;;;7.40;90.10
58102;BME280;52034;51.926;6.320;2022-11-15T00:35:49;100841.03;;;7.41;90.83
58102;BME280;52034;51.926;6.320;2022-11-15T00:37:08;100838.44;;;7.41;90.49
58102;BME280;52034;51.926;6.320;2022-11-15T00:38:31;100835.84;;;7.41;90.88
58102;BME280;52034;51.926;6.320;2022-11-15T00:39:50;100836.81;;;7.43;91.25
58102;BME280;52034;51.926;6.320;2022-11-15T00:41:09;100836.81;;;7.43;91.47
58102;BME280;52034;51.926;6.320;2022-11-15T00:42:28;100831.59;;;7.43;91.88
58102;BME280;52034;51.926;6.320;2022-11-15T00:43:46;100837.72;;;7.45;90.59
58102;BME280;52034;51.926;6.320;2022-11-15T00:45:06;100832.47;;;7.43;91.15
58102;BME280;52034;51.926;6.320;2022-11-15T00:46:25;100840.28;;;7.43;92.06
58102;BME280;52034;51.926;6.320;2022-11-15T00:47:45;100837.72;;;7.45;90.78
58102;BME280;52034;51.926;6.320;2022-11-15T00:49:04;100830.69;;;7.42;91.96
58102;BME280;52034;51.926;6.320;2022-11-15T00:50:23;100829.94;;;7.45;91.32
58102;BME280;52034;51.926;6.320;2022-11-15T00:51:42;100821.25;;;7.44;91.91
58102;BME280;52034;51.926;6.320;2022-11-15T00:53:01;100829.09;;;7.46;91.99
58102;BME280;52034;51.926;6.320;2022-11-15T00:54:20;100830.84;;;7.45;92.10
58102;BME280;52034;51.926;6.320;2022-11-15T00:55:39;100825.84;;;7.51;91.69
58102;BME280;52034;51.926;6.320;2022-11-15T00:56:58;100830.25;;;7.54;91.88
58102;BME280;52034;51.926;6.320;2022-11-15T00:58:17;100834.63;;;7.55;92.26
58102;BME280;52034;51.926;6.320;2022-11-15T00:59:36;100839.00;;;7.56;92.70
58102;BME280;52034;51.926;6.320;2022-11-15T01:00:55;100832.03;;;7.55;91.44
58102;BME280;52034;51.926;6.320;2022-11-15T01:02:14;100825.28;;;7.60;91.96
58102;BME280;52034;51.926;6.320;2022-11-15T01:03:34;100828.75;;;7.61;91.88
58102;BME280;52034;51.926;6.320;2022-11-15T01:04:53;100825.28;;;7.60;91.27
58102;BME280;52034;51.926;6.320;2022-11-15T01:06:12;100826.16;;;7.61;92.28
58102;BME280;52034;51.926;6.320;2022-11-15T01:07:30;100820.16;;;7.62;91.92
58102;BME280;52034;51.926;6.320;2022-11-15T01:08:49;100826.31;;;7.64;91.24
58102;BME280;52034;51.926;6.320;2022-11-15T01:10:08;100821.16;;;7.65;91.83
58102;BME280;52034;51.926;6.320;2022-11-15T01:11:27;100815.94;;;7.65;92.65
58102;BME280;52034;51.926;6.320;2022-11-15T01:12:46;100820.31;;;7.66;92.38
58102;BME280;52034;51.926;6.320;2022-11-15T01:14:06;100817.72;;;7.66;92.51
58102;BME280;52034;51.926;6.320;2022-11-15T01:15:25;100808.88;;;7.61;92.67
58102;BME280;52034;51.926;6.320;2022-11-15T01:16:43;100812.53;;;7.66;92.66
58102;BME280;52034;51.926;6.320;2022-11-15T01:18:02;100816.03;;;7.68;93.48
58102;BME280;52034;51.926;6.320;2022-11-15T01:19:21;100816.88;;;7.67;93.28
58102;BME280;52034;51.926;6.320;2022-11-15T01:20:41;100815.13;;;7.66;93.08
58102;BME280;52034;51.926;6.320;2022-11-15T01:22:00;100805.59;;;7.67;93.31
58102;BME280;52034;51.926;6.320;2022-11-15T01:23:20;100807.31;;;7.66;94.02
58102;BME280;52034;51.926;6.320;2022-11-15T01:24:38;100807.38;;;7.68;93.02
58102;BME280;52034;51.926;6.320;2022-11-15T01:25:59;100816.00;;;7.67;91.65
58102;BME280;52034;51.926;6.320;2022-11-15T01:27:18;100807.41;;;7.69;93.29
58102;BME280;52034;51.926;6.320;2022-11-15T01:28:39;100814.50;;;7.74;93.48
58102;BME280;52034;51.926;6.320;2022-11-15T01:29:58;100812.72;;;7.73;93.01
58102;BME280;52034;51.926;6.320;2022-11-15T01:31:19;100814.50;;;7.74;92.44
58102;BME280;52034;51.926;6.320;2022-11-15T01:32:38;100812.75;;;7.74;93.78
58102;BME280;52034;51.926;6.320;2022-11-15T01:33:57;100809.28;;;7.74;93.20
58102;BME280;52034;51.926;6.320;2022-11-15T01:35:15;100804.97;;;7.74;93.36
58102;BME280;52034;51.926;6.320;2022-11-15T01:36:35;100802.38;;;7.74;94.19
58102;BME280;52034;51.926;6.320;2022-11-15T01:37:53;100805.81;;;7.73;93.15
58102;BME280;52034;51.926;6.320;2022-11-15T01:39:13;100804.13;;;7.75;93.63
58102;BME280;52034;51.926;6.320;2022-11-15T01:40:32;100801.50;;;7.74;93.29
58102;BME280;52034;51.926;6.320;2022-11-15T01:41:51;100796.38;;;7.77;93.09
58102;BME280;52034;51.926;6.320;2022-11-15T01:43:23;100800.72;;;7.76;93.88
58102;BME280;52034;51.926;6.320;2022-11-15T01:44:50;100793.00;;;7.79;92.46
58102;BME280;52034;51.926;6.320;2022-11-15T01:47:48;100791.31;;;7.80;93.66
58102;BME280;52034;51.926;6.320;2022-11-15T01:49:13;100796.56;;;7.81;93.26
58102;BME280;52034;51.926;6.320;2022-11-15T01:50:33;100791.41;;;7.83;92.50
58102;BME280;52034;51.926;6.320;2022-11-15T01:51:53;100787.06;;;7.83;92.72
58102;BME280;52034;51.926;6.320;2022-11-15T01:53:12;100792.31;;;7.85;93.69
58102;BME280;52034;51.926;6.320;2022-11-15T01:54:32;100787.13;;;7.85;94.22
58102;BME280;52034;51.926;6.320;2022-11-15T01:55:52;100781.91;;;7.85;92.97
58102;BME280;52034;51.926;6.320;2022-11-15T01:57:11;100775.72;;;7.80;93.85
58102;BME280;52034;51.926;6.320;2022-11-15T01:58:31;100786.34;;;7.87;93.41
58102;BME280;52034;51.926;6.320;2022-11-15T01:59:51;100786.34;;;7.87;94.03
58102;BME280;52034;51.926;6.320;2022-11-15T02:01:11;100785.47;;;7.87;93.92
58102;BME280;52034;51.926;6.320;2022-11-15T02:02:32;100786.34;;;7.87;92.97
58102;BME280;52034;51.926;6.320;2022-11-15T02:03:56;100777.66;;;7.87;93.92
58102;BME280;52034;51.926;6.320;2022-11-15T02:05:17;100787.28;;;7.90;93.99
58102;BME280;52034;51.926;6.320;2022-11-15T02:06:37;100786.50;;;7.92;93.95
58102;BME280;52034;51.926;6.320;2022-11-15T02:07:56;100785.69;;;7.93;93.51
58102;BME280;52034;51.926;6.320;2022-11-15T02:09:16;100783.19;;;7.96;93.39
58102;BME280;52034;51.926;6.320;2022-11-15T02:10:36;100784.91;;;7.96;92.71
58102;BME280;52034;51.926;6.320;2022-11-15T02:11:55;100785.88;;;7.99;92.71
58102;BME280;52034;51.926;6.320;2022-11-15T02:13:16;100784.19;;;8.00;93.88
58102;BME280;52034;51.926;6.320;2022-11-15T02:14:38;100777.34;;;8.03;92.75
58102;BME280;52034;51.926;6.320;2022-11-15T02:16:00;100786.00;;;8.02;92.22
58102;BME280;52034;51.926;6.320;2022-11-15T02:20:46;100767.09;;;8.08;93.25
58102;BME280;52034;51.926;6.320;2022-11-15T02:22:46;100767.16;;;8.10;93.20
58102;BME280;52034;51.926;6.320;2022-11-15T02:24:16;100767.06;;;8.07;92.41
58102;BME280;52034;51.926;6.320;2022-11-15T02:27:42;100767.69;;;8.27;92.10
58102;BME280;52034;51.926;6.320;2022-11-15T02:29:10;100771.16;;;8.27;93.02
58102;BME280;52034;51.926;6.320;2022-11-15T02:30:41;100764.88;;;8.20;93.28
58102;BME280;52034;51.926;6.320;2022-11-15T02:32:35;100764.06;;;8.22;92.85
58102;BME280;52034;51.926;6.320;2022-11-15T02:34:21;100770.25;;;8.25;91.93
58102;BME280;52034;51.926;6.320;2022-11-15T02:37:34;100764.19;;;8.26;93.46
58102;BME280;52034;51.926;6.320;2022-11-15T02:38:59;100761.53;;;8.25;92.45
58102;BME280;52034;51.926;6.320;2022-11-15T02:40:25;100764.25;;;8.28;93.19
58102;BME280;52034;51.926;6.320;2022-11-15T02:42:06;100758.19;;;8.29;92.84
58102;BME280;52034;51.926;6.320;2022-11-15T02:43:54;100753.16;;;8.33;93.16
58102;BME280;52034;51.926;6.320;2022-11-15T02:45:22;100748.69;;;8.29;90.92
58102;BME280;52034;51.926;6.320;2022-11-15T02:46:52;100751.59;;;8.39;93.07
58102;BME280;52034;51.926;6.320;2022-11-15T02:48:31;100748.78;;;8.32;92.24
58102;BME280;52034;51.926;6.320;2022-11-15T02:49:53;100750.63;;;8.36;92.18
58102;BME280;52034;51.926;6.320;2022-11-15T02:51:13;100750.56;;;8.33;91.26
58102;BME280;52034;51.926;6.320;2022-11-15T02:52:32;100758.44;;;8.36;91.57
58102;BME280;52034;51.926;6.320;2022-11-15T02:53:51;100753.41;;;8.41;91.68
58102;BME280;52034;51.926;6.320;2022-11-15T02:55:37;100749.91;;;8.41;92.30
58102;BME280;52034;51.926;6.320;2022-11-15T02:57:02;100750.50;;;8.32;91.70
58102;BME280;52034;51.926;6.320;2022-11-15T02:58:35;100750.59;;;8.35;91.21
58102;BME280;52034;51.926;6.320;2022-11-15T03:01:50;100751.66;;;8.42;91.61
58102;BME280;52034;51.926;6.320;2022-11-15T03:04:43;100744.38;;;8.57;91.26
58102;BME280;52034;51.926;6.320;2022-11-15T03:09:30;100729.63;;;8.58;91.46
58102;BME280;52034;51.926;6.320;2022-11-15T03:11:07;100731.41;;;8.59;91.05
58102;BME280;52034;51.926;6.320;2022-11-15T03:15:37;100718.63;;;8.66;91.45
58102;BME280;52034;51.926;6.320;2022-11-15T03:17:06;100717.63;;;8.63;90.76
58102;BME280;52034;51.926;6.320;2022-11-15T03:18:37;100714.09;;;8.61;90.94
58102;BME280;52034;51.926;6.320;2022-11-15T03:19:59;100716.72;;;8.62;90.47
58102;BME280;52034;51.926;6.320;2022-11-15T03:21:19;100724.69;;;8.67;91.03
58102;BME280;52034;51.926;6.320;2022-11-15T03:22:43;100713.44;;;8.68;91.30
58102;BME280;52034;51.926;6.320;2022-11-15T03:24:05;100712.69;;;8.72;90.22
58102;BME280;52034;51.926;6.320;2022-11-15T03:25:26;100716.16;;;8.73;90.59
58102;BME280;52034;51.926;6.320;2022-11-15T03:26:47;100716.16;;;8.73;91.34
58102;BME280;52034;51.926;6.320;2022-11-15T03:28:09;100710.13;;;8.74;90.52
58102;BME280;52034;51.926;6.320;2022-11-15T03:29:37;100716.16;;;8.73;90.87
58102;BME280;52034;51.926;6.320;2022-11-15T03:30:59;100713.53;;;8.71;90.42
58102;BME280;52034;51.926;6.320;2022-11-15T03:32:23;100718.69;;;8.69;91.18
58102;BME280;52034;51.926;6.320;2022-11-15T03:33:43;100711.88;;;8.73;91.79
58102;BME280;52034;51.926;6.320;2022-11-15T03:35:07;100711.78;;;8.72;90.80
58102;BME280;52034;51.926;6.320;2022-11-15T03:36:30;100710.13;;;8.74;90.53
58102;BME280;52034;51.926;6.320;2022-11-15T03:39:22;100706.78;;;8.78;90.79
58102;BME280;52034;51.926;6.320;2022-11-15T03:40:45;100706.78;;;8.78;90.20
58102;BME280;52034;51.926;6.320;2022-11-15T03:42:34;100703.59;;;8.88;92.20
58102;BME280;52034;51.926;6.320;2022-11-15T03:46:07;100700.97;;;8.86;90.69
58102;BME280;52034;51.926;6.320;2022-11-15T03:47:36;100710.59;;;8.89;90.44
58102;BME280;52034;51.926;6.320;2022-11-15T03:49:05;100708.16;;;8.97;90.58
58102;BME280;52034;51.926;6.320;2022-11-15T03:50:26;100701.38;;;9.02;90.46
58102;BME280;52034;51.926;6.320;2022-11-15T03:51:46;100697.94;;;9.03;91.26
58102;BME280;52034;51.926;6.320;2022-11-15T03:53:05;100699.00;;;9.11;90.72
58102;BME280;52034;51.926;6.320;2022-11-15T03:54:24;100698.91;;;9.07;90.50
58102;BME280;52034;51.926;6.320;2022-11-15T03:55:43;100707.13;;;9.22;90.95
58102;BME280;52034;51.926;6.320;2022-11-15T03:57:02;100704.41;;;9.17;89.97
58102;BME280;52034;51.926;6.320;2022-11-15T03:58:21;100710.53;;;9.19;89.37
58102;BME280;52034;51.926;6.320;2022-11-15T03:59:40;100708.94;;;9.25;89.61
58102;BME280;52034;51.926;6.320;2022-11-15T04:00:59;100709.94;;;9.30;90.36
58102;BME280;52034;51.926;6.320;2022-11-15T04:02:18;100710.78;;;9.29;89.47
58102;BME280;52034;51.926;6.320;2022-11-15T04:03:36;100706.50;;;9.31;90.56
58102;BME280;52034;51.926;6.320;2022-11-15T04:04:56;100708.06;;;9.24;90.01
58102;BME280;52034;51.926;6.320;2022-11-15T04:06:15;100706.38;;;9.26;89.86
58102;BME280;52034;51.926;6.320;2022-11-15T04:07:34;100710.69;;;9.26;90.13
58102;BME280;52034;51.926;6.320;2022-11-15T04:08:53;100713.53;;;9.33;89.36
58102;BME280;52034;51.926;6.320;2022-11-15T04:10:14;100711.78;;;9.34;89.66
58102;BME280;52034;51.926;6.320;2022-11-15T04:11:33;100711.72;;;9.31;89.64
58102;BME280;52034;51.926;6.320;2022-11-15T04:12:52;100709.09;;;9.31;90.04
58102;BME280;52034;51.926;6.320;2022-11-15T04:14:11;100716.19;;;9.36;89.65
58102;BME280;52034;51.926;6.320;2022-11-15T04:15:30;100722.34;;;9.39;90.24
58102;BME280;52034;51.926;6.320;2022-11-15T04:16:49;100728.44;;;9.39;89.84
58102;BME280;52034;51.926;6.320;2022-11-15T04:18:08;100720.50;;;9.34;89.23
58102;BME280;52034;51.926;6.320;2022-11-15T04:19:27;100723.13;;;9.34;90.08
58102;BME280;52034;51.926;6.320;2022-11-15T04:21:05;100719.66;;;9.35;89.85
58102;BME280;52034;51.926;6.320;2022-11-15T04:22:43;100720.75;;;9.44;90.52
58102;BME280;52034;51.926;6.320;2022-11-15T04:24:21;100724.84;;;9.35;89.76
58102;BME280;52034;51.926;6.320;2022-11-15T04:25:41;100728.34;;;9.34;89.79
58102;BME280;52034;51.926;6.320;2022-11-15T04:27:01;100717.91;;;9.34;90.35
58102;BME280;52034;51.926;6.320;2022-11-15T04:28:21;100722.25;;;9.35;89.95
58102;BME280;52034;51.926;6.320;2022-11-15T04:29:40;100721.41;;;9.36;90.54
58102;BME280;52034;51.926;6.320;2022-11-15T04:30:59;100729.25;;;9.36;90.40
58102;BME280;52034;51.926;6.320;2022-11-15T04:32:18;100725.84;;;9.39;90.43
58102;BME280;52034;51.926;6.320;2022-11-15T04:33:37;100723.13;;;9.34;90.13
58102;BME280;52034;51.926;6.320;2022-11-15T04:34:56;100724.00;;;9.35;90.09
58102;BME280;52034;51.926;6.320;2022-11-15T04:36:15;100729.16;;;9.33;90.15
58102;BME280;52034;51.926;6.320;2022-11-15T04:37:53;100725.88;;;9.41;90.23
58102;BME280;52034;51.926;6.320;2022-11-15T04:39:13;100727.56;;;9.39;89.69
58102;BME280;52034;51.926;6.320;2022-11-15T04:40:31;100730.22;;;9.40;91.17
58102;BME280;52034;51.926;6.320;2022-11-15T04:41:51;100726.66;;;9.38;90.61
58102;BME280;52034;51.926;6.320;2022-11-15T04:43:09;100725.88;;;9.41;90.02
58102;BME280;52034;51.926;6.320;2022-11-15T04:44:28;100724.28;;;9.46;90.50
58102;BME280;52034;51.926;6.320;2022-11-15T04:45:47;100722.66;;;9.51;90.99
58102;BME280;52034;51.926;6.320;2022-11-15T04:47:06;100724.41;;;9.50;90.26
58102;BME280;52034;51.926;6.320;2022-11-15T04:48:25;100721.81;;;9.50;91.11
58102;BME280;52034;51.926;6.320;2022-11-15T04:49:44;100727.94;;;9.54;90.66
58102;BME280;52034;51.926;6.320;2022-11-15T04:51:03;100722.66;;;9.51;90.16
58102;BME280;52034;51.926;6.320;2022-11-15T04:52:22;100716.72;;;9.57;90.55
58102;BME280;52034;51.926;6.320;2022-11-15T04:53:41;100720.41;;;9.65;90.42
58102;BME280;52034;51.926;6.320;2022-11-15T04:55:00;100716.97;;;9.66;90.89
58102;BME280;52034;51.926;6.320;2022-11-15T04:56:19;100725.84;;;9.74;90.06
58102;BME280;52034;51.926;6.320;2022-11-15T04:57:38;100724.25;;;9.79;89.73
58102;BME280;52034;51.926;6.320;2022-11-15T04:58:57;100724.25;;;9.79;90.18
58102;BME280;52034;51.926;6.320;2022-11-15T05:00:16;100716.31;;;9.75;89.86
58102;BME280;52034;51.926;6.320;2022-11-15T05:01:35;100719.03;;;9.79;91.14
58102;BME280;52034;51.926;6.320;2022-11-15T05:02:55;100718.91;;;9.73;90.01
58102;BME280;52034;51.926;6.320;2022-11-15T05:04:33;100723.31;;;9.76;91.48
58102;BME280;52034;51.926;6.320;2022-11-15T05:05:52;100724.13;;;9.73;91.95
58102;BME280;52034;51.926;6.320;2022-11-15T05:07:11;100721.44;;;9.71;92.27
58102;BME280;52034;51.926;6.320;2022-11-15T05:08:29;100719.84;;;9.77;92.71
58102;BME280;52034;51.926;6.320;2022-11-15T05:09:48;100716.22;;;9.71;92.03
58102;BME280;52034;51.926;6.320;2022-11-15T05:11:07;100719.78;;;9.74;92.77
58102;BME280;52034;51.926;6.320;2022-11-15T05:12:26;100713.63;;;9.71;93.09
58102;BME280;52034;51.926;6.320;2022-11-15T05:13:44;100717.06;;;9.69;93.63
58102;BME280;52034;51.926;6.320;2022-11-15T05:15:03;100715.16;;;9.63;93.45
58102;BME280;52034;51.926;6.320;2022-11-15T05:16:22;100716.09;;;9.65;93.66
58102;BME280;52034;51.926;6.320;2022-11-15T05:17:42;100712.66;;;9.66;94.19
58102;BME280;52034;51.926;6.320;2022-11-15T05:19:01;100715.09;;;9.60;93.92
58102;BME280;52034;51.926;6.320;2022-11-15T05:20:20;100715.16;;;9.63;94.04
58102;BME280;52034;51.926;6.320;2022-11-15T05:21:39;100714.38;;;9.67;94.78
58102;BME280;52034;51.926;6.320;2022-11-15T05:22:58;100705.59;;;9.62;94.74
58102;BME280;52034;51.926;6.320;2022-11-15T05:24:17;100705.66;;;9.65;94.03
58102;BME280;52034;51.926;6.320;2022-11-15T05:25:36;100707.50;;;9.69;95.04
58102;BME280;52034;51.926;6.320;2022-11-15T05:26:55;100713.47;;;9.65;94.82
58102;BME280;52034;51.926;6.320;2022-11-15T05:28:14;100714.31;;;9.64;94.64
58102;BME280;52034;51.926;6.320;2022-11-15T05:29:33;100713.44;;;9.64;94.78
58102;BME280;52034;51.926;6.320;2022-11-15T05:30:52;100711.69;;;9.63;94.64
58102;BME280;52034;51.926;6.320;2022-11-15T05:32:12;100706.53;;;9.66;94.65
58102;BME280;52034;51.926;6.320;2022-11-15T05:33:32;100703.81;;;9.61;95.02
58102;BME280;52034;51.926;6.320;2022-11-15T05:34:52;100705.63;;;9.64;95.46
58102;BME280;52034;51.926;6.320;2022-11-15T05:36:18;100707.31;;;9.63;95.39
58102;BME280;52034;51.926;6.320;2022-11-15T05:37:40;100711.47;;;9.55;94.94
58102;BME280;52034;51.926;6.320;2022-11-15T05:38:59;100708.28;;;9.67;95.47
58102;BME280;52034;51.926;6.320;2022-11-15T05:40:18;100699.59;;;9.66;95.68
58102;BME280;52034;51.926;6.320;2022-11-15T05:41:43;100712.47;;;9.60;95.58
58102;BME280;52034;51.926;6.320;2022-11-15T05:43:04;100702.22;;;9.66;95.67
58102;BME280;52034;51.926;6.320;2022-11-15T05:44:24;100704.13;;;9.74;95.40
58102;BME280;52034;51.926;6.320;2022-11-15T05:45:45;100706.50;;;9.64;95.74
58102;BME280;52034;51.926;6.320;2022-11-15T05:47:05;100701.34;;;9.67;96.31
58102;BME280;52034;51.926;6.320;2022-11-15T05:48:26;100708.28;;;9.67;95.69
58102;BME280;52034;51.926;6.320;2022-11-15T05:49:45;100703.94;;;9.67;96.06
58102;BME280;52034;51.926;6.320;2022-11-15T05:51:06;100709.09;;;9.64;95.73
58102;BME280;52034;51.926;6.320;2022-11-15T05:52:30;100705.59;;;9.62;95.37
58102;BME280;52034;51.926;6.320;2022-11-15T05:53:50;100708.34;;;9.68;96.04
58102;BME280;52034;51.926;6.320;2022-11-15T05:55:10;100712.69;;;9.68;96.08
58102;BME280;52034;51.926;6.320;2022-11-15T05:56:29;100712.78;;;9.73;96.12
58102;BME280;52034;51.926;6.320;2022-11-15T05:57:48;100710.13;;;9.71;96.52
58102;BME280;52034;51.926;6.320;2022-11-15T05:59:08;100711.97;;;9.75;96.25
58102;BME280;52034;51.926;6.320;2022-11-15T06:00:28;100709.09;;;9.64;96.33
58102;BME280;52034;51.926;6.320;2022-11-15T06:01:47;100708.56;;;9.78;96.36
58102;BME280;52034;51.926;6.320;2022-11-15T06:03:06;100711.84;;;9.69;96.18
58102;BME280;52034;51.926;6.320;2022-11-15T06:04:25;100711.47;;;9.55;95.98
58102;BME280;52034;51.926;6.320;2022-11-15T06:05:44;100703.13;;;9.68;96.05
58102;BME280;52034;51.926;6.320;2022-11-15T06:07:03;100707.44;;;9.66;95.95
58102;BME280;52034;51.926;6.320;2022-11-15T06:08:22;100705.69;;;9.67;96.32
58102;BME280;52034;51.926;6.320;2022-11-15T06:09:40;100707.38;;;9.65;96.45
58102;BME280;52034;51.926;6.320;2022-11-15T06:11:04;100708.34;;;9.68;96.06
58102;BME280;52034;51.926;6.320;2022-11-15T06:12:23;100711.84;;;9.69;95.92
58102;BME280;52034;51.926;6.320;2022-11-15T06:13:42;100709.06;;;9.63;95.83
58102;BME280;52034;51.926;6.320;2022-11-15T06:15:01;100702.22;;;9.66;96.17
58102;BME280;52034;51.926;6.320;2022-11-15T06:16:19;100707.53;;;9.71;96.22
58102;BME280;52034;51.926;6.320;2022-11-15T06:17:38;100704.88;;;9.69;96.69
58102;BME280;52034;51.926;6.320;2022-11-15T06:18:57;100710.13;;;9.71;95.87
58102;BME280;52034;51.926;6.320;2022-11-15T06:20:17;100711.00;;;9.71;96.38
58102;BME280;52034;51.926;6.320;2022-11-15T06:21:36;100707.72;;;9.79;96.53
58102;BME280;52034;51.926;6.320;2022-11-15T06:22:59;100712.66;;;9.66;96.13
58102;BME280;52034;51.926;6.320;2022-11-15T06:24:18;100717.06;;;9.69;96.22
58102;BME280;52034;51.926;6.320;2022-11-15T06:25:36;100714.47;;;9.70;96.57
58102;BME280;52034;51.926;6.320;2022-11-15T06:26:55;100717.75;;;9.63;95.89
58102;BME280;52034;51.926;6.320;2022-11-15T06:28:14;100721.31;;;9.65;95.72
58102;BME280;52034;51.926;6.320;2022-11-15T06:29:33;100716.34;;;9.76;96.10
58102;BME280;52034;51.926;6.320;2022-11-15T06:30:52;100718.00;;;9.73;95.84
58102;BME280;52034;51.926;6.320;2022-11-15T06:32:11;100714.56;;;9.74;96.03
58102;BME280;52034;51.926;6.320;2022-11-15T06:33:30;100712.72;;;9.69;96.36
58102;BME280;52034;51.926;6.320;2022-11-15T06:34:49;100718.00;;;9.73;96.08
58102;BME280;52034;51.926;6.320;2022-11-15T06:36:11;100713.75;;;9.76;96.09
58102;BME280;52034;51.926;6.320;2022-11-15T06:37:35;100716.47;;;9.81;96.23
58102;BME280;52034;51.926;6.320;2022-11-15T06:38:54;100723.19;;;9.71;95.81
58102;BME280;52034;51.926;6.320;2022-11-15T06:40:13;100724.91;;;9.70;95.83
58102;BME280;52034;51.926;6.320;2022-11-15T06:41:34;100714.63;;;9.77;95.63
58102;BME280;52034;51.926;6.320;2022-11-15T06:42:58;100719.78;;;9.74;95.66
58102;BME280;52034;51.926;6.320;2022-11-15T06:44:17;100715.41;;;9.74;95.19
58102;BME280;52034;51.926;6.320;2022-11-15T06:45:36;100721.78;;;9.84;95.19
58102;BME280;52034;51.926;6.320;2022-11-15T06:46:55;100713.91;;;9.82;95.05
58102;BME280;52034;51.926;6.320;2022-11-15T06:48:14;100719.16;;;9.84;95.14
58102;BME280;52034;51.926;6.320;2022-11-15T06:49:33;100721.56;;;9.76;94.73
58102;BME280;52034;51.926;6.320;2022-11-15T06:50:52;100725.19;;;9.81;94.87
58102;BME280;52034;51.926;6.320;2022-11-15T06:52:11;100727.88;;;9.84;95.58
58102;BME280;52034;51.926;6.320;2022-11-15T06:53:31;100727.22;;;9.93;95.80
58102;BME280;52034;51.926;6.320;2022-11-15T06:54:50;100721.84;;;9.87;95.60
58102;BME280;52034;51.926;6.320;2022-11-15T06:56:09;100720.16;;;9.89;96.04
58102;BME280;52034;51.926;6.320;2022-11-15T06:57:28;100728.75;;;9.85;95.54
58102;BME280;52034;51.926;6.320;2022-11-15T06:58:47;100733.81;;;9.79;95.98
58102;BME280;52034;51.926;6.320;2022-11-15T07:00:06;100735.59;;;9.80;95.99
58102;BME280;52034;51.926;6.320;2022-11-15T07:01:26;100733.53;;;9.68;95.41
58102;BME280;52034;51.926;6.320;2022-11-15T07:02:46;100735.31;;;9.69;95.32
58102;BME280;52034;51.926;6.320;2022-11-15T07:04:05;100742.19;;;9.65;94.74
58102;BME280;52034;51.926;6.320;2022-11-15T07:05:24;100733.44;;;9.65;93.85
58102;BME280;52034;51.926;6.320;2022-11-15T07:06:46;100741.44;;;9.71;94.43
58102;BME280;52034;51.926;6.320;2022-11-15T07:08:06;100737.19;;;9.75;94.57
58102;BME280;52034;51.926;6.320;2022-11-15T07:09:24;100738.09;;;9.77;94.68
58102;BME280;52034;51.926;6.320;2022-11-15T07:10:44;100741.81;;;9.85;95.22
58102;BME280;52034;51.926;6.320;2022-11-15T07:12:04;100739.88;;;9.78;94.68
58102;BME280;52034;51.926;6.320;2022-11-15T07:13:26;100740.88;;;9.83;95.01
58102;BME280;52034;51.926;6.320;2022-11-15T07:14:46;100739.25;;;9.88;95.81
58102;BME280;52034;51.926;6.320;2022-11-15T07:16:06;100737.50;;;9.87;95.88
58102;BME280;52034;51.926;6.320;2022-11-15T07:17:25;100724.41;;;9.85;95.83
58102;BME280;52034;51.926;6.320;2022-11-15T07:18:44;100727.94;;;9.87;96.50
58102;BME280;52034;51.926;6.320;2022-11-15T07:20:03;100728.81;;;9.88;96.02
58102;BME280;52034;51.926;6.320;2022-11-15T07:21:23;100729.69;;;9.88;96.05
58102;BME280;52034;51.926;6.320;2022-11-15T07:22:42;100735.59;;;9.80;96.48
58102;BME280;52034;51.926;6.320;2022-11-15T07:24:01;100736.47;;;9.80;96.58
58102;BME280;52034;51.926;6.320;2022-11-15T07:25:19;100746.63;;;9.69;96.22
58102;BME280;52034;51.926;6.320;2022-11-15T07:26:38;100739.56;;;9.65;95.72
58102;BME280;52034;51.926;6.320;2022-11-15T07:27:58;100742.25;;;9.68;95.58
58102;BME280;52034;51.926;6.320;2022-11-15T07:29:17;100740.41;;;9.64;94.50
58102;BME280;52034;51.926;6.320;2022-11-15T07:30:36;100739.59;;;9.67;94.06
58102;BME280;52034;51.926;6.320;2022-11-15T07:31:55;100733.41;;;9.63;93.46